Time;durP1;ratioP1;P1;durP2;ratioP2;P2;SDS_P1;SDS_P2;PMS_P1;PMS_P2;Temp;Humidity;BMP_temperature;BMP_pressure;BME280_temperature;BME280_humidity;BME280_pressure;Samples;Min_cycle;Max_cycle;Signal;HPM_P1;HPM_P2
2022/09/26 00:02:06;;;;;;;3.50;1.58;;;13.40;99.90;;;;;;5092388;28;20032;-34
2022/09/26 00:04:32;;;;;;;2.95;1.20;;;13.40;99.90;;;;;;5082625;28;20476;-39
2022/09/26 00:06:57;;;;;;;4.35;1.17;;;13.40;99.90;;;;;;5092596;28;20020;-36
2022/09/26 00:09:25;;;;;;;1.38;1.08;;;13.40;99.90;;;;;;5090463;28;20514;-37
2022/09/26 00:11:51;;;;;;;1.95;0.90;;;13.30;99.90;;;;;;5074366;28;20027;-39
2022/09/26 00:14:20;;;;;;;2.53;1.20;;;13.30;99.90;;;;;;5093430;28;20039;-36
2022/09/26 00:16:46;;;;;;;5.47;1.10;;;13.30;99.90;;;;;;5093385;28;20153;-35
2022/09/26 00:19:12;;;;;;;4.18;1.25;;;13.30;99.90;;;;;;5079595;28;20492;-36
2022/09/26 00:21:38;;;;;;;2.47;1.10;;;13.20;99.90;;;;;;5082248;28;20061;-35
2022/09/26 00:24:05;;;;;;;2.50;1.00;;;13.20;99.90;;;;;;5068496;28;20083;-39
2022/09/26 00:26:32;;;;;;;1.13;1.05;;;13.20;99.90;;;;;;5063103;28;20039;-37
2022/09/26 00:29:00;;;;;;;1.45;1.13;;;13.20;99.90;;;;;;5068015;28;20095;-45
2022/09/26 00:31:28;;;;;;;5.28;1.73;;;13.20;99.90;;;;;;5069090;28;20032;-41
2022/09/26 00:33:55;;;;;;;1.42;1.10;;;13.10;99.90;;;;;;5071428;28;20788;-39
2022/09/26 00:36:21;;;;;;;3.63;1.10;;;13.20;99.90;;;;;;5069217;28;20032;-40
2022/09/26 00:38:47;;;;;;;2.05;1.35;;;13.10;99.90;;;;;;5066177;28;20040;-42
2022/09/26 00:41:13;;;;;;;2.78;1.15;;;13.20;99.90;;;;;;5067629;28;20481;-34
2022/09/26 00:43:47;;;;;;;4.13;0.90;;;13.20;99.90;;;;;;5070657;28;20434;-42
2022/09/26 00:46:34;;;;;;;5.30;0.95;;;13.20;99.90;;;;;;5056793;28;20028;-35
2022/09/26 00:49:24;;;;;;;4.55;0.60;;;13.20;99.90;;;;;;5054832;28;20029;-41
2022/09/26 00:51:58;;;;;;;8.07;0.70;;;13.20;99.90;;;;;;5057798;28;20050;-38
2022/09/26 00:54:27;;;;;;;4.18;0.93;;;13.30;99.90;;;;;;5068994;28;20024;-34
2022/09/26 00:56:55;;;;;;;1.75;0.70;;;13.30;99.90;;;;;;5073292;28;20028;-44
2022/09/26 00:59:23;;;;;;;1.55;0.80;;;13.30;99.90;;;;;;5057861;28;20040;-36
2022/09/26 01:01:51;;;;;;;3.17;0.77;;;13.30;99.90;;;;;;5065155;28;20507;-35
2022/09/26 01:04:18;;;;;;;2.30;0.80;;;13.30;99.90;;;;;;5061128;28;20029;-40
2022/09/26 01:06:44;;;;;;;0.88;0.82;;;13.30;99.90;;;;;;5055190;28;20099;-39
2022/09/26 01:09:13;;;;;;;2.40;0.68;;;13.30;99.90;;;;;;5070231;28;20059;-41
2022/09/26 01:11:40;;;;;;;;;;;13.30;99.90;;;;;;5073332;28;20020;-37
2022/09/26 01:14:08;;;;;;;2.78;0.75;;;13.30;99.90;;;;;;5064779;28;19915;-36
2022/09/26 01:16:35;;;;;;;1.05;0.88;;;13.30;99.90;;;;;;5052722;28;20519;-35
2022/09/26 01:22:13;;;;;;;0.98;0.90;;;13.30;99.90;;;;;;5066840;28;20397;-35
2022/09/26 01:24:49;;;;;;;1.63;0.65;;;13.30;99.90;;;;;;5066507;28;20056;-32
2022/09/26 01:27:45;;;;;;;1.95;1.00;;;13.30;99.90;;;;;;5071888;28;20428;-37
2022/09/26 01:30:25;;;;;;;5.78;1.27;;;13.40;99.90;;;;;;5059791;28;20020;-33
2022/09/26 01:33:13;;;;;;;7.10;1.73;;;13.30;99.90;;;;;;5062169;28;20032;-36
2022/09/26 01:35:58;;;;;;;1.52;1.42;;;13.30;99.90;;;;;;5066338;28;20020;-38
2022/09/26 01:38:47;;;;;;;2.13;1.30;;;13.30;99.90;;;;;;5056593;28;20024;-37
2022/09/26 01:41:34;;;;;;;3.53;1.33;;;13.30;99.90;;;;;;5056299;28;20110;-37
2022/09/26 01:44:33;;;;;;;4.47;1.45;;;13.20;99.90;;;;;;5065241;28;20384;-39
2022/09/26 01:47:20;;;;;;;1.67;1.30;;;13.30;99.90;;;;;;5072686;28;20029;-41
2022/09/26 01:50:03;;;;;;;2.95;1.42;;;13.20;99.90;;;;;;5067117;28;20389;-36
2022/09/26 01:53:04;;;;;;;1.17;1.15;;;13.20;99.90;;;;;;5053025;28;20104;-34
2022/09/26 01:55:36;;;;;;;5.43;1.30;;;13.20;99.90;;;;;;4988452;28;20035;-33
2022/09/26 01:58:48;;;;;;;4.38;1.38;;;13.20;99.90;;;;;;5057326;28;20115;-33
2022/09/26 02:01:15;;;;;;;4.75;1.63;;;13.20;99.90;;;;;;5016752;28;20513;-38
2022/09/26 02:03:55;;;;;;;11.18;1.80;;;13.10;99.90;;;;;;5052428;28;20049;-32
2022/09/26 02:06:43;;;;;;;8.20;1.58;;;13.20;99.90;;;;;;5052882;28;20017;-38
2022/09/26 02:09:18;;;;;;;3.47;1.30;;;13.10;99.90;;;;;;5064947;28;20023;-35
2022/09/26 02:11:48;;;;;;;2.13;1.60;;;13.10;99.90;;;;;;5063835;28;20052;-37
2022/09/26 02:14:35;;;;;;;2.25;1.20;;;13.00;99.90;;;;;;5068542;28;20074;-37
2022/09/26 02:17:09;;;;;;;10.77;1.77;;;13.00;99.90;;;;;;5067804;28;20438;-35
2022/09/26 02:19:38;;;;;;;10.13;1.65;;;13.00;99.90;;;;;;5068094;28;20059;-38
2022/09/26 02:22:04;;;;;;;2.75;1.50;;;12.90;99.90;;;;;;5061170;28;20488;-36
2022/09/26 02:24:30;;;;;;;2.20;1.98;;;12.90;99.90;;;;;;5076913;28;20041;-35
2022/09/26 02:26:56;;;;;;;7.72;1.33;;;12.90;99.90;;;;;;5078717;28;20070;-35
2022/09/26 02:29:21;;;;;;;4.95;1.80;;;12.90;99.90;;;;;;5085078;28;20529;-34
2022/09/26 02:32:14;;;;;;;2.22;2.00;;;12.90;99.90;;;;;;5084646;28;20032;-34
2022/09/26 02:34:41;;;;;;;6.30;1.85;;;12.90;99.90;;;;;;5081071;28;20082;-33
2022/09/26 02:37:08;;;;;;;8.00;2.03;;;12.80;99.90;;;;;;5092035;28;20111;-35
2022/09/26 02:39:34;;;;;;;4.13;2.10;;;12.80;99.90;;;;;;5094696;28;20020;-36
2022/09/26 02:42:20;;;;;;;6.22;2.00;;;12.80;99.90;;;;;;5086442;28;20024;-36
2022/09/26 02:45:16;;;;;;;3.30;1.60;;;12.80;99.90;;;;;;5074116;28;20094;-44
2022/09/26 02:47:56;;;;;;;15.18;2.10;;;12.70;99.90;;;;;;5079797;28;20468;-32
2022/09/26 02:50:27;;;;;;;7.15;1.80;;;12.70;99.90;;;;;;5094784;28;20031;-39
2022/09/26 02:56:16;;;;;;;3.70;1.60;;;12.60;99.90;;;;;;5082684;28;20047;-33
2022/09/26 02:58:53;;;;;;;5.88;1.98;;;12.60;99.90;;;;;;5094278;28;20503;-32
2022/09/26 03:01:41;;;;;;;2.40;1.55;;;12.60;99.90;;;;;;5086336;28;20495;-37
2022/09/26 03:04:17;;;;;;;2.53;1.83;;;12.60;99.90;;;;;;5087139;28;20043;-40
2022/09/26 03:06:47;;;;;;;4.35;2.20;;;12.60;99.90;;;;;;5069109;28;20040;-31
2022/09/26 03:09:15;;;;;;;6.45;1.55;;;12.50;99.90;;;;;;5089183;28;20030;-35
2022/09/26 03:11:42;;;;;;;3.75;1.40;;;12.60;99.90;;;;;;5094849;28;20026;-36
2022/09/26 03:14:09;;;;;;;4.88;2.00;;;12.60;99.90;;;;;;5093171;28;20387;-34
2022/09/26 03:16:38;;;;;;;4.10;2.10;;;12.60;99.90;;;;;;5080435;28;20432;-46
2022/09/26 03:19:25;;;;;;;4.13;2.30;;;12.60;99.90;;;;;;5068369;28;20048;-36
2022/09/26 03:21:51;;;;;;;4.10;2.25;;;12.70;99.90;;;;;;5089469;28;20480;-33
2022/09/26 03:24:17;;;;;;;2.55;1.92;;;12.60;99.90;;;;;;5064110;28;20033;-34
2022/09/26 03:26:43;;;;;;;3.15;1.90;;;12.60;99.90;;;;;;5076175;28;20396;-32
2022/09/26 03:29:08;;;;;;;2.92;1.90;;;12.60;99.90;;;;;;5088861;28;20106;-33
2022/09/26 03:31:34;;;;;;;8.88;2.72;;;12.60;99.90;;;;;;5074142;28;20020;-36
2022/09/26 03:34:02;;;;;;;3.53;1.80;;;12.60;99.90;;;;;;5075817;28;20684;-32
2022/09/26 03:36:28;;;;;;;2.35;2.15;;;12.60;99.90;;;;;;5087071;28;20399;-34
2022/09/26 03:38:54;;;;;;;7.63;1.63;;;12.60;99.90;;;;;;5089559;28;20028;-34
2022/09/26 03:41:19;;;;;;;4.32;1.98;;;12.60;99.90;;;;;;5094896;28;20494;-34
2022/09/26 03:43:45;;;;;;;3.30;1.85;;;12.60;99.90;;;;;;5092195;28;20020;-36
2022/09/26 03:46:11;;;;;;;5.32;2.08;;;12.60;99.90;;;;;;5076362;28;20071;-33
2022/09/26 03:48:37;;;;;;;6.50;2.55;;;12.50;99.90;;;;;;5093919;28;20519;-33
2022/09/26 03:51:05;;;;;;;7.97;2.35;;;12.60;99.90;;;;;;5091619;28;20021;-35
2022/09/26 03:53:32;;;;;;;6.72;1.90;;;12.70;99.90;;;;;;5084666;28;20035;-36
2022/09/26 03:56:06;;;;;;;3.17;2.03;;;12.60;99.90;;;;;;5075586;28;20154;-36
2022/09/26 03:58:33;;;;;;;6.00;2.25;;;12.60;99.90;;;;;;5078719;28;20035;-36
2022/09/26 04:01:19;;;;;;;9.40;1.67;;;12.60;99.90;;;;;;5090458;28;20039;-37
2022/09/26 04:03:46;;;;;;;2.05;1.55;;;12.60;99.90;;;;;;5085939;28;20035;-31
2022/09/26 04:06:14;;;;;;;4.30;2.05;;;12.60;99.90;;;;;;5084646;28;20392;-53
2022/09/26 04:08:41;;;;;;;2.30;1.75;;;12.60;99.90;;;;;;5076785;28;20150;-38
2022/09/26 04:11:11;;;;;;;2.80;1.67;;;12.50;99.90;;;;;;5078953;28;20028;-32
2022/09/26 04:13:37;;;;;;;5.45;1.75;;;12.60;99.90;;;;;;5078635;28;20028;-36
2022/09/26 04:16:04;;;;;;;7.38;2.20;;;12.60;99.90;;;;;;5083739;28;20477;-31
2022/09/26 04:18:31;;;;;;;2.70;1.70;;;12.60;99.90;;;;;;5061168;28;20565;-34
2022/09/26 04:20:57;;;;;;;3.15;1.55;;;12.60;99.90;;;;;;5091575;28;20491;-34
2022/09/26 04:23:27;;;;;;;5.60;2.05;;;12.60;99.90;;;;;;5088238;28;20500;-38
2022/09/26 04:25:53;;;;;;;2.40;1.55;;;12.60;99.90;;;;;;5080638;28;20030;-33
2022/09/26 04:28:19;;;;;;;6.00;2.25;;;12.60;99.90;;;;;;5090016;28;20017;-30
2022/09/26 04:30:45;;;;;;;4.60;1.92;;;12.60;99.90;;;;;;5076410;28;20023;-32
2022/09/26 04:33:11;;;;;;;7.22;1.42;;;12.60;99.90;;;;;;5085034;28;20425;-36
2022/09/26 04:35:37;;;;;;;5.13;1.80;;;12.60;99.90;;;;;;5079094;28;20081;-36
2022/09/26 04:38:03;;;;;;;3.05;2.00;;;12.60;99.90;;;;;;5091223;28;20028;-36
2022/09/26 04:40:30;;;;;;;6.60;2.00;;;12.60;99.90;;;;;;5084948;28;20109;-37
2022/09/26 04:42:56;;;;;;;5.38;1.95;;;12.60;99.90;;;;;;5088776;28;20024;-35
2022/09/26 04:45:22;;;;;;;5.85;1.83;;;12.60;99.90;;;;;;5072540;28;20040;-33
2022/09/26 04:47:48;;;;;;;2.25;1.75;;;12.60;99.90;;;;;;5079102;28;20416;-36
2022/09/26 04:50:13;;;;;;;3.15;1.77;;;12.60;99.90;;;;;;5092505;28;20055;-36
2022/09/26 04:52:39;;;;;;;5.95;1.58;;;12.50;99.90;;;;;;5090747;28;20557;-32
2022/09/26 04:55:06;;;;;;;3.33;1.52;;;12.50;99.90;;;;;;5086684;28;20480;-32
2022/09/26 04:57:31;;;;;;;2.75;2.15;;;12.50;99.90;;;;;;5081806;28;20480;-40
2022/09/26 05:00:00;;;;;;;8.32;2.10;;;12.50;99.90;;;;;;5090582;28;20069;-38
2022/09/26 05:02:26;;;;;;;2.80;1.83;;;12.40;99.90;;;;;;5089365;28;20034;-33
2022/09/26 05:04:51;;;;;;;4.03;1.80;;;12.40;99.90;;;;;;5091078;28;20036;-40
2022/09/26 05:07:18;;;;;;;3.63;2.38;;;12.40;99.90;;;;;;5091289;28;20074;-31
2022/09/26 05:09:44;;;;;;;4.38;1.77;;;12.40;99.90;;;;;;5063621;28;20511;-31
2022/09/26 05:12:10;;;;;;;3.47;1.15;;;12.30;99.90;;;;;;5084617;28;20048;-32
2022/09/26 05:14:36;;;;;;;2.38;1.75;;;12.30;99.90;;;;;;5089065;28;20031;-38
2022/09/26 05:17:02;;;;;;;5.70;1.52;;;12.30;99.90;;;;;;5091304;28;20496;-38
2022/09/26 05:19:28;;;;;;;3.83;1.40;;;12.20;99.90;;;;;;5091972;28;20032;-34
2022/09/26 05:21:53;;;;;;;5.10;1.35;;;12.20;99.90;;;;;;5081615;28;20039;-31
2022/09/26 05:27:06;;;;;;;4.50;1.67;;;12.10;99.90;;;;;;5084023;28;20034;-32
2022/09/26 05:29:32;;;;;;;1.95;1.58;;;12.10;99.90;;;;;;5085693;28;20457;-36
2022/09/26 05:31:58;;;;;;;4.70;1.48;;;12.10;99.90;;;;;;5073377;28;20081;-33
2022/09/26 05:34:24;;;;;;;2.03;1.20;;;12.10;99.90;;;;;;5056466;28;20113;-36
2022/09/26 05:36:51;;;;;;;1.63;1.40;;;12.10;99.90;;;;;;5089661;28;20466;-37
2022/09/26 05:42:03;;;;;;;4.45;1.45;;;12.00;99.90;;;;;;5078557;28;20438;-36
2022/09/26 05:44:29;;;;;;;6.38;1.92;;;12.10;99.90;;;;;;5088098;28;20028;-31
2022/09/26 05:46:56;;;;;;;1.88;1.33;;;12.00;99.90;;;;;;5079977;28;20020;-37
2022/09/26 05:49:21;;;;;;;6.13;1.77;;;12.00;99.90;;;;;;5078851;28;20024;-32
2022/09/26 05:51:47;;;;;;;2.40;1.60;;;12.00;99.90;;;;;;5053373;28;20051;-38
2022/09/26 05:54:13;;;;;;;11.50;3.65;;;12.00;99.90;;;;;;5091497;28;20036;-37
2022/09/26 05:56:39;;;;;;;1.58;1.48;;;12.10;99.90;;;;;;5092202;28;20028;-34
2022/09/26 05:59:05;;;;;;;2.15;1.40;;;12.10;99.90;;;;;;5094169;28;20461;-37
2022/09/26 06:01:32;;;;;;;1.48;1.38;;;12.00;99.90;;;;;;5095804;28;20020;-37
2022/09/26 06:03:58;;;;;;;5.50;1.75;;;12.00;99.90;;;;;;5082122;28;20029;-39
2022/09/26 06:06:24;;;;;;;2.80;1.40;;;12.00;99.90;;;;;;5089001;28;20020;-34
2022/09/26 06:08:50;;;;;;;3.40;1.42;;;12.10;99.90;;;;;;5092907;28;20396;-35
2022/09/26 06:11:19;;;;;;;4.22;1.45;;;12.10;99.90;;;;;;5088882;28;20093;-40
2022/09/26 06:13:45;;;;;;;3.25;1.42;;;12.10;99.90;;;;;;5077234;28;20024;-36
2022/09/26 06:16:19;;;;;;;3.78;1.92;;;12.10;99.90;;;;;;5089270;28;20533;-35
2022/09/26 06:18:46;;;;;;;6.13;1.45;;;12.20;99.90;;;;;;5088445;28;21646;-37
2022/09/26 06:21:14;;;;;;;3.53;1.50;;;12.20;99.90;;;;;;5077786;28;20037;-47
2022/09/26 06:23:40;;;;;;;3.53;1.80;;;12.20;99.90;;;;;;5051601;28;20044;-34
2022/09/26 06:26:08;;;;;;;2.75;1.48;;;12.20;99.90;;;;;;5053795;28;20091;-38
2022/09/26 06:28:35;;;;;;;2.92;1.23;;;12.30;99.90;;;;;;5053291;28;20029;-35
2022/09/26 06:31:15;;;;;;;1.58;1.23;;;12.30;99.90;;;;;;5055980;28;20053;-34
2022/09/26 06:33:41;;;;;;;3.38;1.58;;;12.30;99.90;;;;;;5047813;28;20033;-30
2022/09/26 06:36:08;;;;;;;4.97;1.48;;;12.30;99.90;;;;;;5059482;28;20060;-35
2022/09/26 06:38:35;;;;;;;4.47;1.73;;;12.30;99.90;;;;;;5056313;28;20065;-38
2022/09/26 06:41:00;;;;;;;2.25;1.95;;;12.30;99.90;;;;;;5055501;28;20063;-37
2022/09/26 06:43:26;;;;;;;2.63;1.45;;;12.40;99.90;;;;;;5055150;28;20501;-34
2022/09/26 06:45:52;;;;;;;3.67;1.40;;;12.40;99.90;;;;;;5054329;28;20480;-36
2022/09/26 06:48:21;;;;;;;4.43;1.73;;;12.40;99.90;;;;;;5053133;28;20083;-33
2022/09/26 06:50:53;;;;;;;4.68;1.50;;;12.40;99.90;;;;;;5051072;28;20108;-34
2022/09/26 06:53:19;;;;;;;3.83;1.45;;;12.50;99.90;;;;;;5047658;28;20481;-40
2022/09/26 06:55:45;;;;;;;4.03;1.48;;;12.50;99.90;;;;;;5054259;28;20025;-47
2022/09/26 06:58:11;;;;;;;2.25;1.27;;;12.50;99.90;;;;;;5053433;28;20025;-31
2022/09/26 07:00:39;;;;;;;3.25;1.35;;;12.50;99.90;;;;;;5053419;28;20060;-32
2022/09/26 07:03:07;;;;;;;5.63;2.05;;;12.50;99.90;;;;;;5042497;28;20036;-31
2022/09/26 07:05:32;;;;;;;4.18;1.80;;;12.50;99.90;;;;;;5054930;28;20024;-33
2022/09/26 07:07:58;;;;;;;3.50;2.13;;;12.50;99.90;;;;;;5054580;28;20358;-34
2022/09/26 07:10:24;;;;;;;2.67;1.30;;;12.50;99.90;;;;;;5051633;28;20013;-35
2022/09/26 07:12:50;;;;;;;3.60;1.80;;;12.50;99.90;;;;;;5045595;28;20425;-34
2022/09/26 07:15:19;;;;;;;3.65;1.35;;;12.60;99.90;;;;;;5052157;28;20095;-36
2022/09/26 07:17:49;;;;;;;10.40;1.65;;;12.60;99.90;;;;;;5046190;28;20047;-33
2022/09/26 07:20:18;;;;;;;1.67;1.20;;;12.50;99.90;;;;;;5044447;28;20541;-35
2022/09/26 07:22:44;;;;;;;3.75;1.30;;;12.50;99.90;;;;;;5053410;28;20040;-34
2022/09/26 07:25:10;;;;;;;1.52;1.33;;;12.50;99.90;;;;;;5085902;28;20047;-36
2022/09/26 07:27:37;;;;;;;4.40;1.35;;;12.50;99.90;;;;;;5074970;28;20052;-31
2022/09/26 07:30:05;;;;;;;5.32;1.65;;;12.60;99.90;;;;;;5087614;28;20485;-36
2022/09/26 07:32:31;;;;;;;5.55;1.58;;;12.60;99.90;;;;;;5069194;28;20548;-34
2022/09/26 07:35:02;;;;;;;1.83;1.30;;;12.60;99.90;;;;;;5093886;28;20109;-32
2022/09/26 07:37:28;;;;;;;7.15;2.45;;;12.60;99.90;;;;;;5093193;28;20028;-34
2022/09/26 07:39:54;;;;;;;5.20;1.67;;;12.60;99.90;;;;;;5091701;28;20055;-36
2022/09/26 07:42:20;;;;;;;3.67;1.30;;;12.60;99.90;;;;;;5088335;28;20070;-34
2022/09/26 07:44:47;;;;;;;4.03;1.58;;;12.60;99.90;;;;;;5083313;28;20681;-43
2022/09/26 07:50:13;;;;;;;6.75;1.88;;;12.70;99.90;;;;;;5073245;28;20036;-37
2022/09/26 07:52:40;;;;;;;2.75;1.70;;;12.70;99.90;;;;;;5069307;28;20031;-36
2022/09/26 07:55:08;;;;;;;8.43;2.28;;;12.70;99.90;;;;;;5073707;28;20073;-40
2022/09/26 07:57:34;;;;;;;4.13;1.15;;;12.70;99.90;;;;;;5086688;28;20169;-38
2022/09/26 08:00:04;;;;;;;6.63;2.05;;;12.80;99.90;;;;;;5080684;28;20058;-31
2022/09/26 08:02:34;;;;;;;4.97;1.75;;;12.80;99.90;;;;;;5076258;28;20035;-34
2022/09/26 08:05:02;;;;;;;5.68;2.47;;;12.80;99.90;;;;;;5086336;28;20459;-33
2022/09/26 08:07:29;;;;;;;9.60;1.63;;;12.90;99.90;;;;;;5088515;28;20507;-32
2022/09/26 08:09:55;;;;;;;7.10;1.40;;;12.90;99.90;;;;;;5082522;28;20031;-33
2022/09/26 08:12:21;;;;;;;4.93;1.77;;;12.90;99.90;;;;;;5084957;28;20081;-32
2022/09/26 08:14:51;;;;;;;1.67;1.40;;;12.90;99.90;;;;;;5093229;28;20031;-34
2022/09/26 08:17:18;;;;;;;4.38;1.63;;;13.00;99.90;;;;;;5082712;28;20472;-39
2022/09/26 08:19:43;;;;;;;3.20;1.70;;;13.00;99.90;;;;;;5063425;28;20499;-36
2022/09/26 08:22:10;;;;;;;1.92;1.40;;;12.90;99.90;;;;;;5084287;28;20020;-36
2022/09/26 08:24:36;;;;;;;2.38;1.85;;;12.90;99.90;;;;;;5093860;28;20044;-38
2022/09/26 08:27:02;;;;;;;4.75;1.90;;;12.90;99.90;;;;;;5091302;28;20035;-37
2022/09/26 08:29:30;;;;;;;4.63;1.85;;;12.80;99.90;;;;;;5073438;28;20016;-39
2022/09/26 08:31:57;;;;;;;1.77;1.40;;;12.80;99.90;;;;;;5082072;28;20145;-33
2022/09/26 08:34:22;;;;;;;10.18;2.25;;;12.80;99.90;;;;;;5093704;28;20020;-36
2022/09/26 08:36:52;;;;;;;10.93;2.25;;;12.70;99.90;;;;;;5089364;28;20073;-32
2022/09/26 08:39:19;;;;;;;3.00;1.35;;;12.80;99.90;;;;;;5093865;28;20476;-39
2022/09/26 08:42:22;;;;;;;3.42;1.63;;;12.70;99.90;;;;;;5093679;28;20024;-33
2022/09/26 08:44:48;;;;;;;5.20;1.40;;;12.70;99.90;;;;;;5093107;28;20059;-39
2022/09/26 08:47:36;;;;;;;1.88;1.52;;;12.80;99.90;;;;;;5093866;28;20024;-34
2022/09/26 08:50:08;;;;;;;3.17;1.42;;;12.80;99.90;;;;;;5075359;28;20035;-34
2022/09/26 08:52:46;;;;;;;5.22;1.42;;;12.80;99.90;;;;;;5093788;28;20024;-34
2022/09/26 08:55:16;;;;;;;;;;;12.80;99.90;;;;;;5076102;28;20017;-32
2022/09/26 08:58:00;;;;;;;4.95;1.90;;;12.70;99.90;;;;;;5093362;28;19940;-37
2022/09/26 09:00:30;;;;;;;3.47;1.90;;;12.60;99.90;;;;;;5093374;28;20107;-36
2022/09/26 09:03:02;;;;;;;3.88;2.28;;;12.50;99.90;;;;;;5093332;28;20027;-36
2022/09/26 09:05:42;;;;;;;8.80;2.00;;;12.40;99.90;;;;;;5093298;28;20020;-38
2022/09/26 09:08:46;;;;;;;1.60;1.23;;;12.40;99.90;;;;;;5093547;28;20503;-37
2022/09/26 09:11:55;;;;;;;4.25;2.03;;;12.40;99.90;;;;;;5093271;28;20055;-39
2022/09/26 09:14:39;;;;;;;10.40;2.03;;;12.50;99.90;;;;;;5093184;28;20028;-41
2022/09/26 09:17:44;;;;;;;4.25;1.80;;;12.40;99.90;;;;;;5093246;28;20020;-35
2022/09/26 09:20:36;;;;;;;3.58;2.25;;;12.40;99.90;;;;;;5071447;28;20085;-38
2022/09/26 09:23:20;;;;;;;9.50;2.67;;;12.40;99.90;;;;;;5092944;28;20024;-34
2022/09/26 09:25:48;;;;;;;2.85;1.58;;;12.50;99.90;;;;;;5093015;28;20052;-38
2022/09/26 09:28:29;;;;;;;6.53;1.77;;;12.50;99.90;;;;;;5093071;28;20024;-38
2022/09/26 09:31:10;;;;;;;2.13;1.80;;;12.50;99.90;;;;;;5092533;28;20013;-42
2022/09/26 09:33:46;;;;;;;11.43;3.00;;;12.60;99.90;;;;;;5074788;28;20028;-35
2022/09/26 09:36:16;;;;;;;8.38;2.10;;;12.50;99.90;;;;;;5092864;28;20058;-38
2022/09/26 09:38:45;;;;;;;5.13;2.38;;;12.50;99.90;;;;;;5092902;28;20087;-35
2022/09/26 09:41:14;;;;;;;8.48;2.25;;;12.50;99.90;;;;;;5093125;28;20501;-39
2022/09/26 09:43:47;;;;;;;4.55;2.17;;;12.50;99.90;;;;;;5092720;28;20031;-43
2022/09/26 09:46:27;;;;;;;6.10;1.80;;;12.50;99.90;;;;;;5092828;28;20031;-36
2022/09/26 09:49:08;;;;;;;27.30;3.60;;;12.50;99.90;;;;;;5092770;28;20051;-38
2022/09/26 09:52:02;;;;;;;5.38;2.08;;;12.50;99.90;;;;;;5092766;28;20074;-39
2022/09/26 09:55:06;;;;;;;2.22;2.00;;;12.60;99.90;;;;;;5045420;28;20383;-38
2022/09/26 09:57:52;;;;;;;5.70;2.72;;;12.70;99.90;;;;;;5092716;28;20028;-38
2022/09/26 10:00:21;;;;;;;3.00;1.95;;;12.80;99.90;;;;;;5093027;28;20499;-42
2022/09/26 10:03:00;;;;;;;5.95;2.20;;;12.80;99.90;;;;;;5092627;28;20021;-42
2022/09/26 10:05:41;;;;;;;7.15;2.92;;;12.80;99.90;;;;;;5092624;28;20036;-39
2022/09/26 10:08:14;;;;;;;10.15;2.38;;;12.80;99.90;;;;;;5092836;28;20028;-40
2022/09/26 10:10:39;;;;;;;6.45;3.03;;;12.80;99.90;;;;;;5092617;28;20027;-36
2022/09/26 10:13:07;;;;;;;6.57;2.60;;;12.80;99.90;;;;;;5092607;28;20385;-35
2022/09/26 10:15:35;;;;;;;5.38;2.00;;;12.80;99.90;;;;;;5092645;28;20016;-37
2022/09/26 10:18:04;;;;;;;6.35;2.40;;;12.80;99.90;;;;;;5092830;28;20052;-34
2022/09/26 10:20:51;;;;;;;2.53;2.20;;;12.70;99.90;;;;;;5092627;28;20495;-39
2022/09/26 10:23:32;;;;;;;2.85;2.53;;;12.70;99.90;;;;;;5074211;28;20040;-38
2022/09/26 10:26:04;;;;;;;5.03;2.38;;;12.60;99.90;;;;;;5074330;28;20103;-39
2022/09/26 10:28:42;;;;;;;4.10;2.60;;;12.60;99.90;;;;;;5073674;28;20040;-36
2022/09/26 10:31:09;;;;;;;;;;;12.60;99.90;;;;;;5093143;28;20383;-36
2022/09/26 10:33:37;;;;;;;7.72;2.40;;;12.70;99.90;;;;;;5092583;28;20355;-38
2022/09/26 10:36:16;;;;;;;9.43;3.25;;;12.70;99.90;;;;;;5092357;28;20043;-36
2022/09/26 10:41:56;;;;;;;7.38;2.80;;;12.70;99.90;;;;;;5088193;28;20070;-33
2022/09/26 10:44:38;;;;;;;7.90;3.13;;;12.70;99.90;;;;;;5080964;28;20357;-36
2022/09/26 10:47:09;;;;;;;3.15;1.83;;;12.70;99.90;;;;;;5075954;28;20024;-32
2022/09/26 10:49:56;;;;;;;7.95;2.85;;;12.60;99.90;;;;;;5076244;28;20457;-38
2022/09/26 10:52:26;;;;;;;5.65;2.20;;;12.60;99.90;;;;;;5075516;28;20404;-33
2022/09/26 10:54:59;;;;;;;7.07;3.05;;;12.60;99.90;;;;;;5075624;28;20020;-33
2022/09/26 10:57:30;;;;;;;2.58;2.38;;;12.60;99.90;;;;;;5075588;28;20037;-31
2022/09/26 10:59:58;;;;;;;6.22;2.25;;;12.60;99.90;;;;;;5075461;28;20108;-36
2022/09/26 11:02:26;;;;;;;3.95;2.85;;;12.60;99.90;;;;;;5075655;28;20029;-31
2022/09/26 11:07:45;;;;;;;3.33;2.60;;;12.60;99.90;;;;;;5075428;28;20032;-32
2022/09/26 11:10:13;;;;;;;3.35;2.30;;;12.60;99.90;;;;;;5075541;28;20162;-34
2022/09/26 11:12:55;;;;;;;5.32;2.75;;;12.70;99.90;;;;;;5075324;28;20387;-34
2022/09/26 11:15:22;;;;;;;7.88;3.03;;;12.60;99.90;;;;;;5075301;28;20101;-31
2022/09/26 11:17:55;;;;;;;3.47;2.60;;;12.70;99.90;;;;;;5075103;28;20104;-35
2022/09/26 11:20:26;;;;;;;4.43;2.78;;;12.60;99.90;;;;;;5075170;28;20096;-32
2022/09/26 11:23:21;;;;;;;2.60;2.40;;;12.60;99.90;;;;;;5075030;28;20029;-36
2022/09/26 11:26:06;;;;;;;6.40;3.20;;;12.60;99.90;;;;;;5075026;28;20067;-33
2022/09/26 11:28:39;;;;;;;3.67;2.25;;;12.60;99.90;;;;;;5075299;28;20468;-34
2022/09/26 11:31:22;;;;;;;3.20;2.88;;;12.60;99.90;;;;;;5074986;28;20028;-36
2022/09/26 11:33:48;;;;;;;2.75;2.55;;;12.70;99.90;;;;;;5056986;28;20430;-35
2022/09/26 11:36:41;;;;;;;2.78;2.58;;;12.70;99.90;;;;;;5074847;28;20021;-35
2022/09/26 11:39:39;;;;;;;3.58;2.92;;;12.70;99.90;;;;;;5075021;28;20111;-45
2022/09/26 11:42:53;;;;;;;3.70;2.83;;;12.70;99.90;;;;;;5075016;28;20483;-34
2022/09/26 11:45:22;;;;;;;2.95;2.75;;;12.70;99.90;;;;;;5057127;28;20483;-35
2022/09/26 11:48:05;;;;;;;3.40;3.10;;;12.80;99.90;;;;;;5074528;28;20069;-32
2022/09/26 11:50:58;;;;;;;3.20;2.90;;;12.80;99.90;;;;;;5074611;28;20107;-41
2022/09/26 11:53:50;;;;;;;2.90;2.70;;;12.80;99.90;;;;;;5074222;28;20447;-38
2022/09/26 11:56:38;;;;;;;5.65;3.03;;;12.80;99.90;;;;;;5074495;28;20542;-33
2022/09/26 11:59:22;;;;;;;3.80;3.30;;;12.80;99.90;;;;;;5074299;28;20027;-33
2022/09/26 12:02:02;;;;;;;3.10;2.80;;;12.80;99.90;;;;;;5074569;28;20031;-40
2022/09/26 12:04:47;;;;;;;4.50;3.03;;;12.80;99.90;;;;;;5074155;28;20046;-34
2022/09/26 12:07:16;;;;;;;5.72;3.40;;;12.80;99.90;;;;;;5074493;28;20058;-41
2022/09/26 12:10:06;;;;;;;3.42;3.13;;;12.90;99.90;;;;;;5074149;28;20024;-42
2022/09/26 12:12:41;;;;;;;3.15;2.95;;;12.90;99.90;;;;;;5074195;28;20040;-36
2022/09/26 12:15:13;;;;;;;3.92;3.45;;;13.00;99.90;;;;;;5074105;28;20033;-40
2022/09/26 12:18:17;;;;;;;3.47;3.17;;;13.00;99.90;;;;;;5074048;28;20028;-38
2022/09/26 12:21:00;;;;;;;3.90;3.60;;;13.00;99.90;;;;;;5073887;28;20021;-40
2022/09/26 12:23:50;;;;;;;4.00;3.55;;;13.00;99.90;;;;;;5073664;28;20564;-37
2022/09/26 12:26:41;;;;;;;4.82;4.05;;;13.00;99.90;;;;;;5073776;28;20035;-42
2022/09/26 12:29:40;;;;;;;10.98;3.10;;;13.10;99.90;;;;;;5073604;28;20452;-39
2022/09/26 12:32:29;;;;;;;4.25;3.40;;;13.10;99.90;;;;;;5073606;28;20495;-38
2022/09/26 12:35:12;;;;;;;4.75;3.22;;;13.10;99.90;;;;;;5073633;28;20480;-38
2022/09/26 12:37:56;;;;;;;6.05;3.45;;;13.10;99.90;;;;;;5055302;28;20037;-38
2022/09/26 12:40:35;;;;;;;3.50;3.20;;;13.10;99.90;;;;;;5057462;28;20035;-33
2022/09/26 12:43:26;;;;;;;6.22;2.97;;;13.10;99.90;;;;;;5055173;28;20036;-37
2022/09/26 12:46:01;;;;;;;3.38;3.00;;;13.10;99.90;;;;;;5073795;28;20484;-37
2022/09/26 12:48:33;;;;;;;3.53;3.33;;;13.10;99.90;;;;;;5073508;28;20099;-31
2022/09/26 12:51:29;;;;;;;2.95;2.70;;;13.10;99.90;;;;;;5073373;28;20021;-34
2022/09/26 12:54:15;;;;;;;6.07;2.70;;;13.10;99.90;;;;;;5073660;28;20029;-37
2022/09/26 12:56:51;;;;;;;4.53;2.78;;;13.10;99.90;;;;;;5055413;28;20536;-55
2022/09/26 12:59:28;;;;;;;4.07;3.10;;;13.10;99.90;;;;;;5073530;28;20561;-34
2022/09/26 13:02:03;;;;;;;2.22;2.13;;;13.00;99.90;;;;;;5073157;28;20025;-32
2022/09/26 13:04:51;;;;;;;2.83;2.55;;;13.10;99.90;;;;;;5073306;28;20468;-30
2022/09/26 13:07:52;;;;;;;3.75;2.38;;;13.10;99.90;;;;;;5072615;28;20107;-32
2022/09/26 13:10:27;;;;;;;2.40;2.15;;;13.20;99.90;;;;;;5073326;28;20028;-30
2022/09/26 13:13:22;;;;;;;3.85;1.98;;;13.20;99.90;;;;;;5073034;28;20063;-30
2022/09/26 13:16:02;;;;;;;1.98;1.83;;;13.20;99.90;;;;;;5072951;28;20082;-47
2022/09/26 13:18:45;;;;;;;2.50;2.13;;;13.20;99.90;;;;;;5073228;28;20472;-34
2022/09/26 13:21:14;;;;;;;2.03;1.92;;;13.20;99.90;;;;;;5073226;28;20091;-31
2022/09/26 13:23:58;;;;;;;1.98;1.88;;;13.30;99.90;;;;;;5054223;28;20165;-33
2022/09/26 13:26:32;;;;;;;5.03;2.20;;;13.30;99.90;;;;;;5073196;28;20507;-31
2022/09/26 13:29:09;;;;;;;2.03;1.88;;;13.30;99.90;;;;;;5055401;28;20450;-31
2022/09/26 13:31:39;;;;;;;3.40;2.33;;;13.30;99.90;;;;;;5072819;28;20025;-33
2022/09/26 13:34:17;;;;;;;2.47;1.98;;;13.40;99.90;;;;;;5072770;28;20424;-30
2022/09/26 13:36:43;;;;;;;2.47;2.28;;;13.40;99.90;;;;;;5072835;28;20024;-32
2022/09/26 13:39:39;;;;;;;2.25;2.05;;;13.50;99.90;;;;;;5072743;28;20031;-30
2022/09/26 13:42:12;;;;;;;3.80;2.42;;;13.60;99.90;;;;;;5072909;28;20020;-30